Time;durP1;ratioP1;P1;durP2;ratioP2;P2;SDS_P1;SDS_P2;PMS_P1;PMS_P2;Temp;Humidity;BMP_temperature;BMP_pressure;BME280_temperature;BME280_humidity;BME280_pressure;Samples;Min_cycle;Max_cycle;Signal;HPM_P1;HPM_P2
2021/09/23 00:01:10;;;;;;;20.30;12.45;;;;;;;5.74;100.00;101334.87;2578442;55;20136;-70
2021/09/23 00:06:27;;;;;;;21.25;13.20;;;;;;;5.78;100.00;101336.44;2576840;55;20101;-70
2021/09/23 00:08:55;;;;;;;23.15;13.98;;;;;;;5.76;100.00;101341.81;2578320;55;20113;-70
2021/09/23 00:11:23;;;;;;;25.33;13.60;;;;;;;5.74;100.00;101335.72;2578319;55;20108;-69
2021/09/23 00:13:51;;;;;;;25.35;18.10;;;;;;;5.74;100.00;101332.22;2578512;55;20121;-69
2021/09/23 00:16:21;;;;;;;30.83;20.90;;;;;;;5.72;100.00;101326.97;2578471;55;20128;-69
2021/09/23 00:18:51;;;;;;;33.13;21.58;;;;;;;5.76;100.00;101336.53;2578713;55;20125;-67
2021/09/23 00:21:19;;;;;;;32.67;23.15;;;;;;;5.76;100.00;101333.00;2578774;55;20131;-68
2021/09/23 00:23:49;;;;;;;30.50;21.62;;;;;;;5.77;100.00;101332.06;2578791;55;20130;-69
2021/09/23 00:26:17;;;;;;;32.30;21.65;;;;;;;5.77;100.00;101338.25;2578484;55;20446;-70
2021/09/23 00:28:45;;;;;;;33.35;22.30;;;;;;;5.79;100.00;101335.50;2578482;55;20124;-68
2021/09/23 00:31:13;;;;;;;30.58;20.35;;;;;;;5.74;100.00;101333.06;2573516;55;20121;-69
2021/09/23 00:33:41;;;;;;;23.42;17.92;;;;;;;5.78;100.00;101328.50;2578669;55;20109;-68
2021/09/23 00:36:13;;;;;;;22.80;15.63;;;;;;;5.75;100.00;101331.28;2578605;55;20630;-68
2021/09/23 00:38:41;;;;;;;24.92;16.65;;;;;;;5.75;100.00;101323.34;2578670;55;20512;-68
2021/09/23 00:41:10;;;;;;;21.98;16.05;;;;;;;5.80;100.00;101331.91;2578333;55;20127;-69
2021/09/23 00:43:38;;;;;;;30.23;15.50;;;;;;;5.78;100.00;101324.06;2578473;55;20148;-68
2021/09/23 00:46:06;;;;;;;20.33;14.00;;;;;;;5.80;100.00;101322.19;2578707;55;20612;-69
2021/09/23 00:48:34;;;;;;;22.13;13.15;;;;;;;5.80;100.00;101316.03;2578639;55;20124;-68
2021/09/23 00:51:02;;;;;;;27.70;17.33;;;;;;;5.78;100.00;101309.94;2578678;55;20629;-69
2021/09/23 00:53:29;;;;;;;30.20;19.37;;;;;;;5.77;100.00;101313.53;2578705;55;20135;-68
2021/09/23 00:55:59;;;;;;;33.38;23.45;;;;;;;5.79;100.00;101314.31;2578549;55;20109;-68
2021/09/23 00:58:30;;;;;;;36.55;22.23;;;;;;;5.80;100.00;101297.50;2578484;55;20117;-68
2021/09/23 01:00:58;;;;;;;40.38;24.45;;;;;;;5.81;100.00;101301.84;2578707;55;20631;-69
2021/09/23 01:03:26;;;;;;;30.42;21.33;;;;;;;5.79;100.00;101301.94;2578598;55;20113;-68
2021/09/23 01:05:55;;;;;;;29.58;20.17;;;;;;;5.80;100.00;101293.06;2578211;55;20128;-69
2021/09/23 01:08:23;;;;;;;27.67;18.00;;;;;;;5.78;100.00;101292.28;2578477;55;20512;-69
2021/09/23 01:10:52;;;;;;;27.17;17.70;;;;;;;5.78;100.00;101296.72;2578402;55;20124;-69
2021/09/23 01:13:22;;;;;;;25.12;15.27;;;;;;;5.79;100.00;101295.78;2578503;55;20117;-68
2021/09/23 01:15:54;;;;;;;23.08;13.52;;;;;;;5.82;100.00;101290.38;2578471;55;20139;-68
2021/09/23 01:18:23;;;;;;;19.80;13.10;;;;;;;5.81;100.00;101291.25;2578361;55;20132;-68
2021/09/23 01:20:52;;;;;;;24.00;12.05;;;;;;;5.83;100.00;101289.44;2578548;55;20110;-69
2021/09/23 01:23:21;;;;;;;19.98;10.88;;;;;;;5.82;100.00;101277.13;2578479;55;20126;-69
2021/09/23 01:25:50;;;;;;;17.90;10.88;;;;;;;5.83;100.00;101289.44;2578408;55;20117;-68
2021/09/23 01:28:18;;;;;;;19.42;12.18;;;;;;;5.86;100.00;101286.62;2578562;55;20581;-69
2021/09/23 01:30:46;;;;;;;17.90;9.90;;;;;;;5.83;100.00;101273.53;2578620;55;20128;-69
2021/09/23 01:33:14;;;;;;;12.90;8.32;;;;;;;5.84;100.00;101280.56;2578338;55;20554;-68
2021/09/23 01:35:42;;;;;;;17.50;10.20;;;;;;;5.83;100.00;101271.72;2578442;55;20109;-69
2021/09/23 01:38:10;;;;;;;17.52;8.93;;;;;;;5.82;100.00;101277.13;2578474;55;20129;-68
2021/09/23 01:40:39;;;;;;;14.38;8.30;;;;;;;5.84;100.00;101269.97;2578418;55;20135;-69
2021/09/23 01:43:08;;;;;;;12.57;8.07;;;;;;;5.85;100.00;101272.50;2578625;55;20113;-68
2021/09/23 01:45:36;;;;;;;14.13;7.40;;;;;;;5.85;100.00;101264.56;2578585;55;20715;-68
2021/09/23 01:48:05;;;;;;;12.45;8.70;;;;;;;5.88;100.00;101271.53;2578407;55;20145;-70
2021/09/23 01:50:33;;;;;;;12.15;7.25;;;;;;;5.87;100.00;101259.22;2578320;55;20496;-68
2021/09/23 01:53:01;;;;;;;13.10;7.82;;;;;;;5.83;100.00;101262.94;2578353;55;20131;-68
2021/09/23 01:55:29;;;;;;;10.98;6.65;;;;;;;5.79;100.00;101258.69;2578312;55;20229;-70
2021/09/23 01:58:00;;;;;;;11.73;7.07;;;;;;;5.77;100.00;101253.50;2578405;55;20094;-68
2021/09/23 02:00:28;;;;;;;16.10;7.47;;;;;;;5.82;100.00;101255.94;2578278;55;20102;-68
2021/09/23 02:02:56;;;;;;;11.45;6.60;;;;;;;5.81;100.00;101259.50;2578269;55;20119;-69
2021/09/23 02:05:24;;;;;;;13.52;7.28;;;;;;;5.79;100.00;101256.06;2578165;55;20116;-69
2021/09/23 02:07:53;;;;;;;11.82;7.57;;;;;;;5.80;100.00;101245.41;2578257;55;20153;-68
2021/09/23 02:10:21;;;;;;;12.88;6.95;;;;;;;5.75;100.00;101239.44;2578321;55;20128;-69
2021/09/23 02:12:50;;;;;;;10.93;7.03;;;;;;;5.72;100.00;101234.31;2578323;55;20116;-69
2021/09/23 02:15:19;;;;;;;11.60;7.50;;;;;;;5.71;100.00;101241.41;2578366;55;20114;-69
2021/09/23 02:17:47;;;;;;;11.70;7.28;;;;;;;5.69;100.00;101245.88;2578230;55;20128;-69
2021/09/23 02:20:16;;;;;;;12.30;7.47;;;;;;;5.66;100.00;101224.84;2578111;55;20105;-68
2021/09/23 02:22:45;;;;;;;10.68;7.00;;;;;;;5.65;100.00;101227.56;2578236;55;20122;-67
2021/09/23 02:25:13;;;;;;;11.65;6.07;;;;;;;5.69;100.00;101227.34;2573003;55;20133;-69
2021/09/23 02:27:41;;;;;;;14.00;7.10;;;;;;;5.63;100.00;101219.72;2578904;55;20161;-69
2021/09/23 02:30:11;;;;;;;9.43;6.18;;;;;;;5.65;100.00;101223.16;2573918;55;20117;-69
2021/09/23 02:32:40;;;;;;;11.35;6.97;;;;;;;5.66;100.00;101224.84;2578984;55;20603;-68
2021/09/23 02:35:08;;;;;;;10.82;7.12;;;;;;;5.61;100.00;101221.59;2578995;55;20504;-69
2021/09/23 02:37:36;;;;;;;11.68;7.80;;;;;;;5.60;100.00;101219.84;2578863;55;20127;-69
2021/09/23 02:40:07;;;;;;;14.13;9.07;;;;;;;5.62;100.00;101212.72;2579018;55;20121;-69
2021/09/23 02:42:35;;;;;;;13.50;7.90;;;;;;;5.63;100.00;101211.78;2578985;55;20175;-68
2021/09/23 02:45:04;;;;;;;14.50;9.25;;;;;;;5.64;100.00;101215.25;2578973;55;20119;-68
2021/09/23 02:47:33;;;;;;;16.00;8.27;;;;;;;5.63;100.00;101216.19;2578878;55;20168;-68
2021/09/23 02:50:03;;;;;;;11.85;7.75;;;;;;;5.60;100.00;101203.97;2578917;55;20113;-69
2021/09/23 02:52:30;;;;;;;12.10;8.38;;;;;;;5.59;100.00;101190.81;2578920;55;20131;-68
2021/09/23 02:54:58;;;;;;;11.12;7.32;;;;;;;5.55;100.00;101190.09;2578938;55;20131;-69
2021/09/23 02:57:26;;;;;;;14.38;7.47;;;;;;;5.56;100.00;101197.09;2578813;55;20165;-68
2021/09/23 02:59:54;;;;;;;11.98;8.63;;;;;;;5.54;100.00;101191.03;2579044;55;20118;-68
2021/09/23 03:02:22;;;;;;;14.40;8.40;;;;;;;5.55;100.00;101190.09;2579050;55;20101;-68
2021/09/23 03:04:49;;;;;;;14.70;8.55;;;;;;;5.56;100.00;101187.38;2578878;55;20114;-68
2021/09/23 03:07:20;;;;;;;11.63;7.60;;;;;;;5.58;100.00;101189.94;2578888;55;20109;-68
2021/09/23 03:09:48;;;;;;;17.92;7.50;;;;;;;5.52;100.00;101179.66;2578873;55;20158;-68
2021/09/23 03:12:16;;;;;;;13.18;8.13;;;;;;;5.59;100.00;101189.00;2578893;55;20590;-69
2021/09/23 03:14:44;;;;;;;12.85;7.45;;;;;;;5.58;100.00;101184.66;2579199;55;20113;-69
2021/09/23 03:17:12;;;;;;;15.40;7.68;;;;;;;5.59;100.00;101186.34;2578888;55;20114;-70
2021/09/23 03:19:39;;;;;;;12.98;7.95;;;;;;;5.61;100.00;101176.59;2579089;55;20139;-69
2021/09/23 03:22:07;;;;;;;12.15;7.32;;;;;;;5.59;100.00;101175.78;2578786;55;20588;-70
2021/09/23 03:24:36;;;;;;;19.10;10.23;;;;;;;5.59;100.00;101167.81;2578789;55;20527;-69
2021/09/23 03:27:05;;;;;;;14.87;7.68;;;;;;;5.60;100.00;101171.34;2578822;55;20102;-68
2021/09/23 03:29:32;;;;;;;13.73;8.75;;;;;;;5.57;100.00;101161.75;2578802;55;20117;-68
2021/09/23 03:32:00;;;;;;;13.85;8.23;;;;;;;5.56;100.00;101158.25;2578883;55;20105;-68
2021/09/23 03:34:29;;;;;;;11.38;8.20;;;;;;;5.58;100.00;101163.47;2578789;55;20102;-69
2021/09/23 03:36:57;;;;;;;15.48;7.47;;;;;;;5.53;100.00;101155.75;2578892;55;20135;-70
2021/09/23 03:39:25;;;;;;;12.13;8.25;;;;;;;5.55;100.00;101156.53;2573484;55;20118;-70
2021/09/23 03:41:54;;;;;;;14.52;7.22;;;;;;;5.56;100.00;101158.25;2578797;55;20514;-68
2021/09/23 03:44:21;;;;;;;11.77;6.57;;;;;;;5.59;100.00;101159.88;2578776;55;20612;-69
2021/09/23 03:46:49;;;;;;;13.25;6.47;;;;;;;5.57;100.00;101156.47;2578904;55;20116;-69
2021/09/23 03:49:18;;;;;;;12.75;6.55;;;;;;;5.53;100.00;101157.53;2578683;55;20136;-68
2021/09/23 03:51:46;;;;;;;10.50;6.22;;;;;;;5.52;100.00;101158.47;2578724;55;20461;-69
2021/09/23 03:54:14;;;;;;;11.25;6.62;;;;;;;5.48;100.00;101162.19;2578708;55;20125;-70
2021/09/23 03:56:41;;;;;;;11.88;6.47;;;;;;;5.46;100.00;101154.34;2578742;55;20499;-70
2021/09/23 03:59:11;;;;;;;13.98;7.07;;;;;;;5.43;100.00;101149.16;2578834;55;20161;-70
2021/09/23 04:01:39;;;;;;;12.50;6.75;;;;;;;5.49;100.00;101150.66;2573568;55;20117;-69
2021/09/23 04:04:07;;;;;;;14.98;5.85;;;;;;;5.50;100.00;101142.66;2578538;55;20169;-70
2021/09/23 04:06:42;;;;;;;12.15;6.43;;;;;;;5.49;100.00;101148.00;2573305;55;20610;-70
2021/09/23 04:09:11;;;;;;;11.32;5.78;;;;;;;5.48;100.00;101152.47;2578682;55;20805;-70
2021/09/23 04:11:39;;;;;;;9.82;6.60;;;;;;;5.46;100.00;101158.75;2578569;55;20550;-68
2021/09/23 04:14:08;;;;;;;12.07;6.30;;;;;;;5.45;100.00;101149.09;2578374;55;20203;-68
2021/09/23 04:16:42;;;;;;;10.32;5.85;;;;;;;5.43;100.00;101142.09;2578571;55;20169;-68
2021/09/23 04:19:13;;;;;;;11.95;5.78;;;;;;;5.45;100.00;101135.88;2578564;55;20183;-68
2021/09/23 04:21:42;;;;;;;10.88;6.53;;;;;;;5.48;100.00;101138.37;2578638;55;20172;-70
2021/09/23 04:24:10;;;;;;;14.27;6.72;;;;;;;5.46;100.00;101137.59;2578710;55;20536;-70
2021/09/23 04:26:40;;;;;;;11.40;6.07;;;;;;;5.46;100.00;101135.81;2573658;55;20492;-69
2021/09/23 04:29:08;;;;;;;10.77;6.72;;;;;;;5.45;100.00;101133.22;2578720;55;20167;-69
2021/09/23 04:31:38;;;;;;;12.68;6.15;;;;;;;5.40;100.00;101128.16;2578345;55;20109;-70
2021/09/23 04:34:05;;;;;;;12.65;6.18;;;;;;;5.42;100.00;101129.78;2578633;55;20527;-69
2021/09/23 04:36:34;;;;;;;10.35;5.90;;;;;;;5.42;100.00;101131.56;2578543;55;20153;-69
2021/09/23 04:39:02;;;;;;;12.48;7.43;;;;;;;5.45;100.00;101123.47;2578602;55;20132;-69
2021/09/23 04:41:30;;;;;;;16.80;7.80;;;;;;;5.37;100.00;101123.84;2578457;55;20177;-70
2021/09/23 04:43:59;;;;;;;13.23;6.93;;;;;;;5.36;100.00;101121.25;2578586;55;20132;-68
2021/09/23 04:46:27;;;;;;;10.98;7.78;;;;;;;5.40;100.00;101123.69;2578478;55;20112;-68
2021/09/23 04:48:58;;;;;;;14.10;7.75;;;;;;;5.40;100.00;101117.56;2578512;55;20188;-68
2021/09/23 04:51:26;;;;;;;13.05;7.45;;;;;;;5.46;100.00;101119.06;2578283;55;20125;-68
2021/09/23 04:53:55;;;;;;;14.82;7.70;;;;;;;5.47;100.00;101126.06;2578552;55;20651;-68
2021/09/23 04:56:22;;;;;;;13.07;7.65;;;;;;;5.45;100.00;101125.28;2578524;55;20161;-67
2021/09/23 04:58:50;;;;;;;13.07;6.47;;;;;;;5.45;100.00;101117.34;2578500;55;20128;-68
2021/09/23 05:01:19;;;;;;;11.90;6.32;;;;;;;5.46;100.00;101119.06;2578503;55;20113;-68
2021/09/23 05:03:47;;;;;;;10.93;6.57;;;;;;;5.46;100.00;101119.94;2578201;55;20101;-68
2021/09/23 05:06:16;;;;;;;13.62;7.37;;;;;;;5.49;100.00;101113.59;2578170;55;20109;-68
2021/09/23 05:08:44;;;;;;;12.77;6.72;;;;;;;5.48;100.00;101111.91;2578222;55;20124;-69
2021/09/23 05:11:11;;;;;;;11.27;6.70;;;;;;;5.48;100.00;101109.25;2577496;55;20109;-69
2021/09/23 05:13:39;;;;;;;11.50;6.25;;;;;;;5.52;100.00;101108.19;2578406;55;20570;-67
2021/09/23 05:16:07;;;;;;;13.85;6.93;;;;;;;5.48;100.00;101106.59;2577407;55;20140;-69
2021/09/23 05:18:35;;;;;;;11.32;6.45;;;;;;;5.51;100.00;101106.44;2578082;55;20647;-69
2021/09/23 05:21:03;;;;;;;11.70;6.50;;;;;;;5.52;100.00;101102.91;2578153;55;20109;-68
2021/09/23 05:23:32;;;;;;;18.23;7.35;;;;;;;5.54;100.00;101099.22;2576743;55;20129;-67
2021/09/23 05:26:00;;;;;;;13.32;6.70;;;;;;;5.55;100.00;101102.75;2578089;55;20124;-69
2021/09/23 05:28:28;;;;;;;13.43;7.05;;;;;;;5.60;100.00;101095.41;2578260;55;20118;-68
2021/09/23 05:30:55;;;;;;;14.70;6.43;;;;;;;5.60;100.00;101092.78;2578119;55;20135;-69
2021/09/23 05:33:23;;;;;;;12.80;6.62;;;;;;;5.61;100.00;101097.16;2577103;55;20133;-69
2021/09/23 05:35:51;;;;;;;13.82;6.62;;;;;;;5.64;100.00;101086.41;2576728;55;20112;-69
2021/09/23 05:38:19;;;;;;;13.38;7.75;;;;;;;5.63;100.00;101082.06;2577857;55;20128;-68
2021/09/23 05:40:48;;;;;;;14.18;7.22;;;;;;;5.70;100.00;101079.97;2577841;55;20112;-69
2021/09/23 05:43:16;;;;;;;12.90;6.03;;;;;;;5.79;100.00;101084.81;2577334;55;20198;-69
2021/09/23 05:45:43;;;;;;;18.15;7.15;;;;;;;5.80;100.00;101083.00;2577956;55;20105;-68
2021/09/23 05:48:12;;;;;;;11.32;5.65;;;;;;;5.84;100.00;101081.94;2577957;55;20649;-70
2021/09/23 05:50:40;;;;;;;13.35;5.95;;;;;;;5.95;100.00;101084.91;2577963;55;20109;-69
2021/09/23 05:53:08;;;;;;;11.65;5.95;;;;;;;5.98;100.00;101076.78;2577956;55;20109;-69
2021/09/23 05:55:36;;;;;;;10.40;7.43;;;;;;;6.04;100.00;101069.53;2570358;55;20630;-69
2021/09/23 05:58:05;;;;;;;10.18;6.40;;;;;;;6.12;100.00;101075.28;2577778;55;20163;-68
2021/09/23 06:00:33;;;;;;;12.73;6.18;;;;;;;6.18;100.00;101060.87;2577903;55;20121;-69
2021/09/23 06:03:01;;;;;;;13.43;6.53;;;;;;;6.22;100.00;101058.00;2576622;55;20128;-67
2021/09/23 06:05:29;;;;;;;19.05;7.75;;;;;;;6.29;100.00;101061.19;2577952;55;20113;-69
2021/09/23 06:07:57;;;;;;;10.88;6.43;;;;;;;6.33;100.00;101069.81;2577952;55;20166;-66
2021/09/23 06:10:26;;;;;;;10.25;5.85;;;;;;;6.28;100.00;101058.59;2577790;55;20180;-70
2021/09/23 06:12:53;;;;;;;9.02;5.37;;;;;;;6.26;100.00;101050.72;2577970;55;20135;-68
2021/09/23 06:15:22;;;;;;;10.65;4.95;;;;;;;6.25;100.00;101051.66;2577265;55;20124;-70
2021/09/23 06:17:50;;;;;;;9.98;5.87;;;;;;;6.30;100.00;101048.75;2577909;55;20164;-69
2021/09/23 06:20:20;;;;;;;9.73;4.95;;;;;;;6.36;100.00;101056.41;2577794;55;20158;-64
2021/09/23 06:22:48;;;;;;;10.23;5.47;;;;;;;6.44;100.00;101054.22;2572957;55;20121;-66
2021/09/23 06:25:16;;;;;;;12.68;3.83;;;;;;;6.41;100.00;101059.66;2578169;55;20690;-68
2021/09/23 06:27:43;;;;;;;11.18;6.28;;;;;;;6.33;100.00;101043.31;2578274;55;20125;-68
2021/09/23 06:30:14;;;;;;;9.85;5.15;;;;;;;6.35;100.00;101054.69;2578265;55;20109;-70
2021/09/23 06:32:43;;;;;;;7.57;5.10;;;;;;;6.35;100.00;101049.41;2577212;55;20118;-68
2021/09/23 06:35:12;;;;;;;11.70;6.18;;;;;;;6.40;100.00;101044.69;2576543;55;20116;-71
2021/09/23 06:37:39;;;;;;;9.13;4.95;;;;;;;6.44;100.00;101048.91;2576312;55;20516;-68
2021/09/23 06:40:09;;;;;;;8.73;5.07;;;;;;;6.42;100.00;101042.84;2576492;55;20531;-68
2021/09/23 06:42:36;;;;;;;10.20;5.32;;;;;;;6.42;100.00;101042.84;2576670;55;20125;-70
2021/09/23 06:45:05;;;;;;;9.80;5.20;;;;;;;6.44;100.00;101038.31;2577075;55;20118;-69
2021/09/23 06:47:33;;;;;;;8.50;4.95;;;;;;;6.46;100.00;101039.09;2577958;55;20121;-71
2021/09/23 06:50:02;;;;;;;8.50;4.78;;;;;;;6.44;100.00;101043.63;2576607;55;20535;-71
2021/09/23 06:52:30;;;;;;;13.35;5.60;;;;;;;6.38;100.00;101036.84;2576042;55;20133;-71
2021/09/23 06:54:58;;;;;;;11.20;5.20;;;;;;;6.41;100.00;101041.09;2576091;55;20125;-71
2021/09/23 06:57:26;;;;;;;9.15;5.40;;;;;;;6.39;100.00;101032.38;2576141;55;20547;-71
2021/09/23 07:00:13;;;;;;;9.57;5.45;;;;;;;6.41;100.00;101030.50;2571095;55;20113;-69
2021/09/23 07:02:42;;;;;;;14.18;6.97;;;;;;;6.48;100.00;101026.59;2576245;55;20121;-68
2021/09/23 07:05:12;;;;;;;13.00;6.32;;;;;;;6.66;100.00;101029.22;2577539;55;20627;-71
2021/09/23 07:07:42;;;;;;;8.98;5.32;;;;;;;6.65;100.00;101017.75;2578044;55;20117;-70
2021/09/23 07:10:10;;;;;;;13.18;6.50;;;;;;;6.69;100.00;101026.38;2578058;55;20496;-71
2021/09/23 07:12:38;;;;;;;9.30;5.90;;;;;;;6.70;100.00;101027.25;2578207;55;20120;-71
2021/09/23 07:15:07;;;;;;;14.65;6.25;;;;;;;6.72;100.00;101030.69;2578941;55;20101;-69
2021/09/23 07:17:36;;;;;;;12.35;6.72;;;;;;;6.77;100.00;101016.22;2573873;55;20635;-68
2021/09/23 07:20:05;;;;;;;8.77;5.15;;;;;;;6.75;100.00;101017.25;2579079;55;20106;-69
2021/09/23 07:22:34;;;;;;;14.63;9.77;;;;;;;6.80;100.00;101021.34;2578828;55;20116;-71
2021/09/23 07:25:02;;;;;;;7.80;5.12;;;;;;;6.79;100.00;101008.19;2578988;55;20119;-71
2021/09/23 07:27:30;;;;;;;10.27;6.25;;;;;;;6.85;100.00;101009.66;2578819;55;20117;-69
2021/09/23 07:29:58;;;;;;;8.80;5.32;;;;;;;6.80;100.00;101000.13;2578885;55;20122;-71
2021/09/23 07:32:25;;;;;;;8.63;5.25;;;;;;;6.75;100.00;101002.19;2578928;55;20120;-69
2021/09/23 07:34:54;;;;;;;8.25;5.03;;;;;;;6.71;100.00;100994.50;2578891;55;20114;-71
2021/09/23 07:37:22;;;;;;;7.55;4.90;;;;;;;6.79;100.00;100993.13;2578841;55;20538;-71
2021/09/23 07:39:51;;;;;;;7.15;3.87;;;;;;;6.85;100.00;100993.75;2578867;55;20125;-69
2021/09/23 07:42:19;;;;;;;10.40;6.25;;;;;;;6.89;100.00;100987.31;2578840;55;20123;-69
2021/09/23 07:44:47;;;;;;;7.75;5.62;;;;;;;6.92;100.00;100987.16;2578983;55;20132;-70
2021/09/23 07:47:15;;;;;;;10.07;4.80;;;;;;;6.90;100.00;100973.09;2578863;55;20121;-69
2021/09/23 07:49:43;;;;;;;8.40;4.80;;;;;;;6.97;100.00;100974.50;2578995;55;20508;-69
2021/09/23 07:52:12;;;;;;;10.05;5.20;;;;;;;6.93;100.00;100968.50;2578826;55;20116;-68
2021/09/23 07:54:40;;;;;;;15.35;5.05;;;;;;;6.94;100.00;100970.19;2578834;55;20133;-71
2021/09/23 07:57:09;;;;;;;10.25;5.85;;;;;;;6.89;100.00;100971.41;2578818;55;20121;-70
2021/09/23 07:59:37;;;;;;;9.38;5.90;;;;;;;6.95;100.00;100966.59;2579068;55;20133;-70
2021/09/23 08:02:05;;;;;;;9.27;5.32;;;;;;;7.03;100.00;100960.00;2578773;55;20134;-71
2021/09/23 08:04:34;;;;;;;8.57;4.80;;;;;;;6.99;100.00;100964.62;2578686;55;20748;-68
2021/09/23 08:07:02;;;;;;;8.13;5.20;;;;;;;7.00;100.00;100973.47;2578789;55;20209;-67
2021/09/23 08:09:30;;;;;;;8.27;4.93;;;;;;;6.96;100.00;100972.78;2578707;55;20530;-68
2021/09/23 08:11:58;;;;;;;7.95;4.00;;;;;;;6.90;100.00;100966.03;2578620;55;20124;-70
2021/09/23 08:14:27;;;;;;;6.53;3.50;;;;;;;6.89;100.00;100971.41;2578866;55;20476;-68
2021/09/23 08:16:56;;;;;;;7.90;4.57;;;;;;;6.97;100.00;100961.22;2578828;55;20109;-68
2021/09/23 08:19:26;;;;;;;5.57;3.30;;;;;;;6.95;100.00;100960.47;2578715;55;20117;-67
2021/09/23 08:21:57;;;;;;;12.52;6.85;;;;;;;6.90;100.00;100957.19;2578875;55;20124;-68
2021/09/23 08:24:25;;;;;;;8.93;4.70;;;;;;;6.92;100.00;100950.88;2578855;55;20631;-69
2021/09/23 08:26:53;;;;;;;7.78;4.60;;;;;;;6.92;100.00;100939.41;2578946;55;20808;-69
2021/09/23 08:29:20;;;;;;;13.52;5.50;;;;;;;7.03;100.00;100952.94;2578723;55;20921;-70
2021/09/23 08:31:50;;;;;;;8.52;5.53;;;;;;;6.97;100.00;100958.56;2578680;55;20109;-69
2021/09/23 08:34:18;;;;;;;8.43;4.40;;;;;;;6.92;100.00;100950.03;2578654;55;20112;-67
2021/09/23 08:36:46;;;;;;;16.75;6.95;;;;;;;6.94;100.00;100938.37;2578608;55;20129;-70
2021/09/23 08:39:15;;;;;;;17.50;8.73;;;;;;;6.97;100.00;100945.31;2578684;55;20128;-71
2021/09/23 08:41:42;;;;;;;11.50;5.93;;;;;;;7.00;100.00;100941.63;2573596;55;20127;-71
2021/09/23 08:44:10;;;;;;;10.93;6.18;;;;;;;7.01;100.00;100938.87;2578554;55;20236;-71
2021/09/23 08:46:39;;;;;;;8.02;3.08;;;;;;;7.00;100.00;100947.78;2578687;55;20539;-71
2021/09/23 08:49:10;;;;;;;9.43;3.72;;;;;;;6.92;100.00;100940.25;2578586;55;20127;-70
2021/09/23 08:51:42;;;;;;;10.75;5.18;;;;;;;6.98;100.00;100933.75;2578595;55;20120;-68
2021/09/23 08:54:09;;;;;;;11.18;6.25;;;;;;;6.93;100.00;100933.16;2578597;55;20178;-69
2021/09/23 08:56:37;;;;;;;15.35;3.97;;;;;;;6.96;100.00;100943.59;2578572;55;20520;-69
2021/09/23 08:59:07;;;;;;;9.60;3.45;;;;;;;6.94;100.00;100940.19;2578657;55;20136;-69
2021/09/23 09:01:40;;;;;;;5.97;3.20;;;;;;;6.94;100.00;100926.91;2578554;55;20111;-69
2021/09/23 09:04:10;;;;;;;7.60;2.97;;;;;;;7.05;100.00;100934.25;2578561;55;20109;-70
2021/09/23 09:06:38;;;;;;;7.70;3.10;;;;;;;7.12;100.00;100937.44;2578281;55;20183;-70
2021/09/23 09:09:18;;;;;;;4.65;2.97;;;;;;;7.16;100.00;100921.22;2573424;55;20637;-68
2021/09/23 09:11:46;;;;;;;10.43;5.70;;;;;;;7.14;100.00;100923.12;2578517;55;20131;-68
2021/09/23 09:14:24;;;;;;;10.57;4.70;;;;;;;7.18;100.00;100911.41;2578544;55;20115;-69
2021/09/23 09:16:55;;;;;;;9.82;5.40;;;;;;;7.18;100.00;100919.34;2578633;55;20656;-71
2021/09/23 09:19:24;;;;;;;9.65;4.03;;;;;;;7.10;100.00;100921.59;2578561;55;20121;-68
2021/09/23 09:22:10;;;;;;;29.00;6.90;;;;;;;7.15;100.00;100914.19;2578546;55;20110;-68
2021/09/23 09:24:48;;;;;;;6.05;3.87;;;;;;;7.09;100.00;100915.41;2578732;55;20498;-69
2021/09/23 09:27:30;;;;;;;5.95;3.33;;;;;;;7.10;100.00;100911.81;2578624;55;20105;-70
2021/09/23 09:30:03;;;;;;;6.40;3.08;;;;;;;7.05;100.00;100899.75;2578592;55;20117;-72
2021/09/23 09:32:39;;;;;;;4.37;2.85;;;;;;;7.03;100.00;100905.16;2578333;55;20109;-69
2021/09/23 09:35:13;;;;;;;7.12;3.95;;;;;;;7.08;100.00;100908.41;2578494;55;20110;-71
2021/09/23 09:37:45;;;;;;;5.05;2.65;;;;;;;7.18;100.00;100910.53;2578513;55;20119;-71
2021/09/23 09:40:16;;;;;;;4.00;1.92;;;;;;;7.18;100.00;100908.75;2578600;55;20121;-70
2021/09/23 09:42:46;;;;;;;4.18;3.03;;;;;;;7.02;100.00;100898.16;2578589;55;20555;-71
2021/09/23 09:45:21;;;;;;;8.55;3.03;;;;;;;7.01;100.00;100895.59;2578544;55;20130;-69
2021/09/23 09:47:53;;;;;;;5.75;2.05;;;;;;;7.07;100.00;100884.63;2578367;55;20105;-69
2021/09/23 09:50:24;;;;;;;5.60;2.70;;;;;;;6.94;100.00;100884.47;2578406;55;20127;-69
2021/09/23 09:52:59;;;;;;;6.72;2.55;;;;;;;6.91;100.00;100892.59;2578613;55;20119;-71
2021/09/23 09:55:28;;;;;;;9.88;2.97;;;;;;;6.86;100.00;100868.97;2578527;55;20615;-69
2021/09/23 09:57:57;;;;;;;6.90;2.87;;;;;;;6.91;100.00;100889.94;2578316;55;20114;-69
2021/09/23 10:00:27;;;;;;;7.82;3.28;;;;;;;6.85;100.00;100864.63;2578292;55;20140;-68
2021/09/23 10:02:57;;;;;;;4.97;2.60;;;;;;;6.85;100.00;100863.78;2578377;55;20119;-69
2021/09/23 10:05:27;;;;;;;5.45;3.70;;;;;;;6.92;100.00;100865.16;2578286;55;20121;-68
2021/09/23 10:07:58;;;;;;;6.40;4.50;;;;;;;6.93;100.00;100862.38;2578276;55;20157;-72
2021/09/23 10:10:29;;;;;;;5.43;3.50;;;;;;;6.98;100.00;100867.44;2578294;55;20127;-72
2021/09/23 10:13:01;;;;;;;8.80;4.30;;;;;;;6.99;100.00;100861.16;2578359;55;20113;-72
2021/09/23 10:15:29;;;;;;;4.15;2.30;;;;;;;7.10;100.00;100861.41;2578181;55;20110;-69
2021/09/23 10:18:03;;;;;;;6.75;3.75;;;;;;;6.95;100.00;100833.13;2578188;55;20109;-68
2021/09/23 10:20:33;;;;;;;7.90;3.20;;;;;;;7.13;100.00;100843.63;2578444;55;20135;-72
2021/09/23 10:23:04;;;;;;;4.15;2.90;;;;;;;7.23;100.00;100850.94;2578351;55;20610;-70
2021/09/23 10:25:43;;;;;;;4.65;3.55;;;;;;;7.14;100.00;100840.00;2578371;55;20120;-73
2021/09/23 10:28:14;;;;;;;7.22;3.20;;;;;;;7.27;100.00;100843.66;2578300;55;20124;-69
2021/09/23 10:30:44;;;;;;;6.60;2.92;;;;;;;7.28;100.00;100839.19;2573101;55;20125;-71
2021/09/23 10:33:13;;;;;;;;;;;;;;;7.38;100.00;100833.22;2578462;55;20539;-72
2021/09/23 10:35:42;;;;;;;4.55;2.17;;;;;;;7.28;100.00;100834.72;2578166;55;20035;-69
2021/09/23 10:38:13;;;;;;;3.10;2.00;;;;;;;7.24;100.00;100833.22;2578112;55;20172;-68
2021/09/23 10:40:42;;;;;;;3.62;2.20;;;;;;;7.30;100.00;100827.53;2578095;55;20141;-71
2021/09/23 10:43:13;;;;;;;5.05;2.83;;;;;;;7.32;100.00;100830.97;2578152;55;20519;-69
2021/09/23 10:45:43;;;;;;;5.15;2.30;;;;;;;7.32;100.00;100830.09;2578259;55;20776;-71
2021/09/23 10:48:12;;;;;;;4.75;2.28;;;;;;;7.36;100.00;100832.47;2578487;55;20143;-70
2021/09/23 10:50:42;;;;;;;4.47;2.62;;;;;;;7.10;100.00;100780.97;2578987;55;20181;-71
2021/09/23 10:53:13;;;;;;;2.97;1.98;;;;;;;7.38;100.00;100827.94;2578984;55;20429;-69
2021/09/23 10:55:43;;;;;;;5.05;2.83;;;;;;;7.38;100.00;100814.66;2579030;55;20539;-72
2021/09/23 10:58:16;;;;;;;5.75;2.60;;;;;;;7.41;100.00;100812.75;2579039;55;20143;-73
2021/09/23 11:00:45;;;;;;;8.52;3.65;;;;;;;7.34;100.00;100810.50;2579191;55;20121;-72
2021/09/23 11:03:13;;;;;;;10.70;4.35;;;;;;;7.31;100.00;100799.19;2578861;55;20123;-69
2021/09/23 11:05:45;;;;;;;9.93;4.97;;;;;;;7.32;100.00;100804.44;2578813;55;20566;-72
2021/09/23 11:08:18;;;;;;;9.25;6.03;;;;;;;7.29;100.00;100796.63;2573755;55;20125;-68
2021/09/23 11:10:48;;;;;;;13.20;4.53;;;;;;;7.29;100.00;100798.44;2579056;55;20611;-68
2021/09/23 11:13:18;;;;;;;3.50;2.50;;;;;;;7.34;100.00;100802.53;2578831;55;20128;-68
2021/09/23 11:15:50;;;;;;;5.30;2.75;;;;;;;7.34;100.00;100786.59;2578864;55;20169;-69
2021/09/23 11:18:18;;;;;;;4.75;2.55;;;;;;;7.35;100.00;100783.00;2578899;55;20633;-69
2021/09/23 11:20:52;;;;;;;7.07;2.50;;;;;;;7.30;100.00;100781.56;2578773;55;20168;-72
2021/09/23 11:23:20;;;;;;;7.45;3.03;;;;;;;7.22;100.00;100771.44;2578948;55;20165;-69
2021/09/23 11:25:51;;;;;;;10.48;4.28;;;;;;;7.15;100.00;100759.47;2578876;55;20622;-69
2021/09/23 11:28:21;;;;;;;5.32;3.05;;;;;;;7.25;100.00;100771.22;2578827;55;20135;-71
2021/09/23 11:30:53;;;;;;;3.62;2.60;;;;;;;7.25;100.00;100765.91;2579075;55;20101;-71